Aérodrome :
LOGIN :

S'inscrire | Disclaimer

   EN    FR    IT 

 










Légende :    VFR   VFR Marginal   IFR   IFR Intensif   IFR Très Intensif
Visi : 
Plafond : 
>= 8 km
>= 3000ft
5 à 8 km
1000 à 3000 ft
1500m à 5 km
500 à 1000 ft
800 à 1500m
200 à 500 ft
< 800m
< 200 ft
Symboles :   Orages  Brouillard  Fortes neiges  Fortes précipitations  Vent > 20 kt
SIGMETs :   Divers  Orages  Givrage  Turbulence  Onde Orograph.  Cendres Volcan.







- Altitude de l'aérodrome : 313 ft
- Voir les cartes d'approche


LFQA - Reims-Prunay

DERNIER METAR :
  • 261630Z AUTO 27009KT 240V300 CAVOK 15/M00 Q1018

METARs EXPIRÉS :
  • 261600Z AUTO 29007KT 250V320 CAVOK 15/M00 Q1019
  • 261530Z AUTO 27011KT 240V310 CAVOK 16/01 Q1019
  • 261500Z AUTO 28007KT 250V330 CAVOK 15/02 Q1019
  • 261430Z AUTO 28009KT 240V310 CAVOK 15/01 Q1019
  • 261400Z AUTO 27007KT 240V310 CAVOK 14/02 Q1019

TAF N/A
Pas de NOTAMs connus pour ce terrain.



MET'MAP, la Météo Aéronautique d'un coup d'oeil ! - Copyright ORBIFLY Décembre 2007 - Disclaimer

ORBIFLY MET'MAP TEAM :

Programmation & Développement : Alexandra Zaïnal
Conception & Développement : Baudouin d'Aumeries
Co-Programmation & Développement : Marc-Olivier Méhu
Soutien technique & logistique : Manuel Goepfert

Contact : metmap@orbifly.com




SOURCES & CREDITS :

   NOAA